Terminal Aerodrome Forecast
Issued by NWS

Home | Current Version | Previous Version | Text Only | Print | Product List | Glossary On
Versions: 1 2 3 4 5 6 7 8 9 10 11 12 13 14 15 16 17 18
000
FTUS42 KRAH 250559 AAB
TAFRWI
TAF AMD
KRWI 250559Z 2506/2606 VRB02KT P6SM BCFG SKC
      TEMPO 2506/2510 2SM BR BCFG SKC
     FM251200 VRB03KT P6SM SKC
     FM252000 25005KT P6SM SCT060=

USA.gov is the U.S. government's official web portal to all federal, state and local government web resources and services.